createdAt,value
2017-12-04T00:00:50.560Z,100625
2017-12-04T00:03:18.831Z,100617
2017-12-04T00:05:47.050Z,100623
2017-12-04T00:08:15.431Z,100617
2017-12-04T00:10:43.657Z,100630
2017-12-04T00:13:11.902Z,100633
2017-12-04T00:15:40.176Z,100616
2017-12-04T00:18:08.405Z,100621
2017-12-04T00:20:37.476Z,100612
2017-12-04T00:23:05.697Z,100612
2017-12-04T00:25:33.922Z,100602
2017-12-04T00:28:02.214Z,100626
2017-12-04T00:30:30.471Z,100619
2017-12-04T00:32:58.697Z,100595
2017-12-04T00:35:26.997Z,100594
2017-12-04T00:37:55.215Z,100605
2017-12-04T00:40:24.208Z,100611
2017-12-04T00:42:52.504Z,100603
2017-12-04T00:45:20.730Z,100609
2017-12-04T00:47:48.958Z,100597
2017-12-04T00:50:17.255Z,100595
2017-12-04T00:52:45.468Z,100593
2017-12-04T00:55:13.693Z,100597
2017-12-04T00:57:41.965Z,100589
2017-12-04T01:00:10.175Z,100588
2017-12-04T01:02:38.395Z,100594
2017-12-04T01:05:07.422Z,100597
2017-12-04T01:07:35.731Z,100593
2017-12-04T01:10:03.953Z,100600
2017-12-04T01:12:32.176Z,100599
2017-12-04T01:15:00.465Z,100588
2017-12-04T01:17:28.691Z,100592
2017-12-04T01:19:56.913Z,100595
2017-12-04T01:22:25.212Z,100608
2017-12-04T01:24:54.186Z,100613
2017-12-04T01:27:22.425Z,100593
2017-12-04T01:29:50.719Z,100582
2017-12-04T01:32:18.932Z,100579
2017-12-04T01:34:47.981Z,100604
2017-12-04T01:37:16.227Z,100600
2017-12-04T01:39:44.446Z,100576
2017-12-04T01:42:12.828Z,100598
2017-12-04T01:44:41.049Z,100586
2017-12-04T01:47:09.275Z,100581
2017-12-04T01:49:37.539Z,100563
2017-12-04T01:52:05.791Z,100570
2017-12-04T01:54:34.027Z,100569
2017-12-04T01:57:03.267Z,100572
2017-12-04T01:59:31.490Z,100570
2017-12-04T02:01:59.701Z,100581
2017-12-04T02:04:27.993Z,100576
2017-12-04T02:06:56.219Z,100560
2017-12-04T02:09:25.214Z,100587
2017-12-04T02:11:54.258Z,100580
2017-12-04T02:14:22.482Z,100581
2017-12-04T02:16:50.749Z,100575
2017-12-04T02:19:19.039Z,100569
2017-12-04T02:21:48.019Z,100574
2017-12-04T02:24:16.289Z,100569
2017-12-04T02:26:44.543Z,100559
2017-12-04T02:29:12.781Z,100560
2017-12-04T02:31:41.170Z,100555
2017-12-04T02:34:09.403Z,100562
2017-12-04T02:36:38.405Z,100550
2017-12-04T02:39:07.472Z,100555
2017-12-04T02:41:35.712Z,100545
2017-12-04T02:44:03.953Z,100557
2017-12-04T02:46:32.276Z,100546
2017-12-04T02:49:00.502Z,100549
2017-12-04T02:51:28.798Z,100538
2017-12-04T02:53:57.132Z,100535
2017-12-04T02:56:25.345Z,100539
2017-12-04T02:58:53.608Z,100537
2017-12-04T03:01:22.689Z,100535
2017-12-04T03:03:51.701Z,100533
2017-12-04T03:06:19.938Z,100530
2017-12-04T03:08:49.134Z,100530
2017-12-04T03:11:17.418Z,100518
2017-12-04T03:13:45.671Z,100508
2017-12-04T03:16:13.946Z,100509
2017-12-04T03:18:42.240Z,100519
2017-12-04T03:21:11.204Z,100519
2017-12-04T03:23:39.454Z,100514
2017-12-04T03:26:07.714Z,100516
2017-12-04T03:28:36.007Z,100513
2017-12-04T03:31:04.252Z,100518
2017-12-04T03:33:33.263Z,100509
2017-12-04T03:36:01.674Z,100503
2017-12-04T03:38:29.903Z,100509
2017-12-04T03:40:58.904Z,100528
2017-12-04T03:43:27.179Z,100533
2017-12-04T03:45:55.488Z,100531
2017-12-04T03:48:23.746Z,100539
2017-12-04T03:50:51.986Z,100542
2017-12-04T03:53:20.273Z,100544
2017-12-04T03:55:49.267Z,100546
2017-12-04T03:58:18.273Z,100540
2017-12-04T04:00:46.610Z,100525
2017-12-04T04:03:14.863Z,100531
2017-12-04T04:05:43.089Z,100527
2017-12-04T04:08:12.983Z,100517
2017-12-04T04:10:42.017Z,100511
2017-12-04T04:13:10.340Z,100519
2017-12-04T04:15:38.578Z,100522
2017-12-04T04:18:06.835Z,100524
2017-12-04T04:20:35.122Z,100528
2017-12-04T04:23:03.496Z,100519
2017-12-04T04:25:31.782Z,100524
2017-12-04T04:28:00.054Z,100519
2017-12-04T04:30:28.337Z,100514
2017-12-04T04:32:56.590Z,100524
2017-12-04T04:35:24.826Z,100515
2017-12-04T04:37:53.135Z,100520
2017-12-04T04:40:21.415Z,100515
2017-12-04T04:42:49.647Z,100510
2017-12-04T04:45:18.730Z,100515
2017-12-04T04:47:46.974Z,100508
2017-12-04T04:50:15.217Z,100495
2017-12-04T04:52:44.297Z,100484
2017-12-04T04:55:12.535Z,100511
2017-12-04T04:57:40.783Z,100497
2017-12-04T05:00:09.359Z,100491
2017-12-04T05:02:37.594Z,100484
2017-12-04T05:05:05.842Z,100489
2017-12-04T05:07:35.339Z,100483
2017-12-04T05:10:04.382Z,100495
2017-12-04T05:12:32.686Z,100488
2017-12-04T05:15:00.942Z,100494
2017-12-04T05:17:29.977Z,100491
2017-12-04T05:19:58.388Z,100488
2017-12-04T05:22:26.661Z,100482
2017-12-04T05:24:54.967Z,100489
2017-12-04T05:27:24.053Z,100491
2017-12-04T05:29:53.101Z,100489
2017-12-04T05:32:21.359Z,100492
2017-12-04T05:34:49.791Z,100492
2017-12-04T05:37:18.040Z,100491
2017-12-04T05:39:46.359Z,100487
2017-12-04T05:42:15.420Z,100489
2017-12-04T05:44:44.418Z,100494
2017-12-04T05:47:12.699Z,100496
2017-12-04T05:49:41.196Z,100492
2017-12-04T05:52:10.213Z,100496
2017-12-04T05:54:39.218Z,100497
2017-12-04T05:57:07.542Z,100494
2017-12-04T05:59:35.813Z,100494
2017-12-04T06:02:04.052Z,100488
2017-12-04T06:04:32.406Z,100484
2017-12-04T06:07:01.428Z,100482
2017-12-04T06:09:29.708Z,100479
2017-12-04T06:11:58.214Z,100480
2017-12-04T06:14:27.281Z,100487
2017-12-04T06:16:55.526Z,100473
2017-12-04T06:19:23.830Z,100495
2017-12-04T06:21:52.077Z,100497
2017-12-04T06:24:21.075Z,100503
2017-12-04T06:26:49.392Z,100501
2017-12-04T06:29:17.636Z,100521
2017-12-04T06:31:45.872Z,100516
2017-12-04T06:34:14.168Z,100515
2017-12-04T06:36:43.185Z,100510
2017-12-04T06:39:11.436Z,100507
2017-12-04T06:41:40.505Z,100521
2017-12-04T06:44:08.744Z,100521
2017-12-04T06:46:37.046Z,100525
2017-12-04T06:49:05.880Z,100520
2017-12-04T06:51:34.893Z,100531
2017-12-04T06:54:03.208Z,100521
2017-12-04T06:56:31.446Z,100533
2017-12-04T06:58:59.700Z,100532
2017-12-04T07:01:28.766Z,100527
2017-12-04T07:03:57.019Z,100531
2017-12-04T07:06:25.315Z,100534
2017-12-04T07:08:53.608Z,100531
2017-12-04T07:11:22.621Z,100517
2017-12-04T07:13:50.875Z,100531
2017-12-04T07:16:20.217Z,100519
2017-12-04T07:18:48.432Z,100528
2017-12-04T07:21:16.650Z,100524
2017-12-04T07:23:44.974Z,100516
2017-12-04T07:26:13.290Z,100521
2017-12-04T07:28:41.555Z,100515
2017-12-04T07:31:09.849Z,100511
2017-12-04T07:33:38.857Z,100523
2017-12-04T07:36:07.081Z,100504
2017-12-04T07:38:35.380Z,100518
2017-12-04T07:41:04.441Z,100515
2017-12-04T07:43:32.682Z,100523
2017-12-04T07:46:00.991Z,100512
2017-12-04T07:48:29.260Z,100512
2017-12-04T07:50:57.529Z,100519
2017-12-04T07:53:25.843Z,100529
2017-12-04T07:55:54.115Z,100522
2017-12-04T07:58:22.397Z,100521
2017-12-04T08:00:50.703Z,100520
2017-12-04T08:03:18.962Z,100515
2017-12-04T08:05:47.982Z,100515
2017-12-04T08:08:16.276Z,100525
2017-12-04T08:10:44.550Z,100519
2017-12-04T08:13:12.838Z,100523
2017-12-04T08:15:41.496Z,100524
2017-12-04T08:18:09.750Z,100534
2017-12-04T08:20:37.973Z,100519
2017-12-04T08:23:06.289Z,100527
2017-12-04T08:25:35.568Z,100526
2017-12-04T08:28:03.849Z,100535
2017-12-04T08:30:32.194Z,100522
2017-12-04T08:33:00.482Z,100527
2017-12-04T08:35:28.716Z,100529
2017-12-04T08:37:57.163Z,100532
2017-12-04T08:40:25.429Z,100546
2017-12-04T08:42:53.681Z,100539
2017-12-04T08:45:21.995Z,100533
2017-12-04T08:47:51.005Z,100543
2017-12-04T08:50:20.047Z,100545
2017-12-04T08:52:48.341Z,100558
2017-12-04T08:55:16.613Z,100558
2017-12-04T08:57:44.862Z,100559
2017-12-04T09:00:13.144Z,100554
2017-12-04T09:02:42.189Z,100561
2017-12-04T09:05:10.423Z,100550
2017-12-04T09:07:38.698Z,100555
2017-12-04T09:10:06.954Z,100557
2017-12-04T09:12:35.552Z,100562
2017-12-04T09:15:04.019Z,100562
2017-12-04T09:17:32.309Z,100560
2017-12-04T09:20:00.555Z,100563
2017-12-04T09:22:28.834Z,100568
2017-12-04T09:24:57.175Z,100566
2017-12-04T09:27:26.215Z,100570
2017-12-04T09:29:54.508Z,100575
2017-12-04T09:32:22.762Z,100579
2017-12-04T09:34:51.018Z,100569
2017-12-04T09:37:19.319Z,100581
2017-12-04T09:39:47.707Z,100587
2017-12-04T09:42:15.962Z,100572
2017-12-04T09:44:44.297Z,100572
2017-12-04T09:47:13.307Z,100572
2017-12-04T09:49:42.319Z,100568
2017-12-04T09:52:10.608Z,100559
2017-12-04T09:54:38.901Z,100562
2017-12-04T09:57:07.959Z,100583
2017-12-04T09:59:36.489Z,100568
2017-12-04T10:02:05.285Z,100557
2017-12-04T10:04:33.538Z,100554
2017-12-04T10:07:01.858Z,100559
2017-12-04T10:09:30.870Z,100561
2017-12-04T10:11:59.108Z,100559
2017-12-04T10:14:27.382Z,100558
2017-12-04T10:16:55.721Z,100572
2017-12-04T10:19:23.964Z,100558
2017-12-04T10:21:52.264Z,100560
2017-12-04T10:24:20.527Z,100557
2017-12-04T10:26:48.758Z,100554
2017-12-04T10:29:17.209Z,100550
2017-12-04T10:31:46.218Z,100547
2017-12-04T10:34:14.443Z,100556
2017-12-04T10:36:42.710Z,100550
2017-12-04T10:39:10.943Z,100554
2017-12-04T10:41:39.468Z,100555
2017-12-04T10:44:07.764Z,100553
2017-12-04T10:46:36.023Z,100559
2017-12-04T10:49:04.291Z,100553
2017-12-04T10:51:33.349Z,100544
2017-12-04T10:54:01.581Z,100540
2017-12-04T10:56:29.826Z,100528
2017-12-04T10:58:58.234Z,100542
2017-12-04T11:01:26.509Z,100538
2017-12-04T11:03:54.780Z,100535
2017-12-04T11:06:23.157Z,100535
2017-12-04T11:08:51.390Z,100533
2017-12-04T11:11:19.674Z,100534
2017-12-04T11:13:48.029Z,100533
2017-12-04T11:16:16.258Z,100530
2017-12-04T11:18:44.501Z,100530
2017-12-04T11:21:12.839Z,100531
2017-12-04T11:23:41.075Z,100536
2017-12-04T11:26:10.122Z,100544
2017-12-04T11:28:38.396Z,100565
2017-12-04T11:31:06.711Z,100561
2017-12-04T11:33:35.778Z,100553
2017-12-04T11:36:04.022Z,100553
2017-12-04T11:38:32.284Z,100565
2017-12-04T11:41:00.547Z,100563
2017-12-04T11:43:29.602Z,100558
2017-12-04T11:45:58.166Z,100566
2017-12-04T11:48:26.450Z,100563
2017-12-04T11:50:54.702Z,100571
2017-12-04T11:53:23.021Z,100573
2017-12-04T11:55:51.282Z,100578
2017-12-04T11:58:20.443Z,100565
2017-12-04T12:00:48.824Z,100575
2017-12-04T12:03:17.073Z,100573
2017-12-04T12:05:46.068Z,100577
2017-12-04T12:08:15.108Z,100576
2017-12-04T12:10:44.147Z,100582
2017-12-04T12:13:13.637Z,100568
2017-12-04T12:15:42.652Z,100574
2017-12-04T12:18:11.670Z,100590
2017-12-04T12:20:40.007Z,100583
2017-12-04T12:23:09.033Z,100582
2017-12-04T12:25:37.539Z,100589
2017-12-04T12:28:05.943Z,100583
2017-12-04T12:30:34.202Z,100579
2017-12-04T12:33:03.231Z,100573
2017-12-04T12:35:31.540Z,100587
2017-12-04T12:37:59.851Z,100580
2017-12-04T12:40:28.093Z,100581
2017-12-04T12:42:56.342Z,100577
2017-12-04T12:45:25.425Z,100573
2017-12-04T12:47:53.663Z,100582
2017-12-04T12:50:21.899Z,100589
2017-12-04T12:52:50.212Z,100582
2017-12-04T12:55:18.434Z,100578
2017-12-04T12:57:47.438Z,100590
2017-12-04T13:00:15.758Z,100600
2017-12-04T13:02:44.763Z,100604
2017-12-04T13:05:13.004Z,100616
2017-12-04T13:07:41.388Z,100611
2017-12-04T13:10:09.621Z,100621
2017-12-04T13:12:37.881Z,100617
2017-12-04T13:15:06.166Z,100624
2017-12-04T13:17:34.413Z,100624
2017-12-04T13:20:03.173Z,100634
2017-12-04T13:22:31.598Z,100633
2017-12-04T13:24:59.832Z,100641
2017-12-04T13:27:28.981Z,100647
2017-12-04T13:29:57.297Z,100653
2017-12-04T13:32:43.455Z,100646
2017-12-04T13:35:30.357Z,100650
2017-12-04T13:37:58.632Z,100652
2017-12-04T13:40:26.869Z,100642
2017-12-04T13:42:55.180Z,100645
2017-12-04T13:45:23.405Z,100654
2017-12-04T13:47:51.665Z,100659
2017-12-04T13:50:19.988Z,100659
2017-12-04T13:52:48.234Z,100657
2017-12-04T13:55:16.755Z,100662
2017-12-04T13:57:45.121Z,100665
2017-12-04T14:00:13.378Z,100665
2017-12-04T14:02:41.628Z,100678
2017-12-04T14:05:09.894Z,100675
2017-12-04T14:07:39.048Z,100684
2017-12-04T14:10:07.297Z,100694
2017-12-04T14:12:35.514Z,100692
2017-12-04T14:15:03.872Z,100695
2017-12-04T14:17:32.866Z,100697
2017-12-04T14:20:01.092Z,100696
2017-12-04T14:22:29.408Z,100700
2017-12-04T14:24:57.637Z,100698
2017-12-04T14:27:26.642Z,100696
2017-12-04T14:29:54.970Z,100706
2017-12-04T14:32:23.210Z,100708
2017-12-04T14:34:51.423Z,100702
2017-12-04T14:37:19.764Z,100710
2017-12-04T14:39:48.034Z,100712
2017-12-04T14:42:16.279Z,100723
2017-12-04T14:44:45.390Z,100715
2017-12-04T14:47:13.644Z,100721
2017-12-04T14:49:42.653Z,100730
2017-12-04T14:52:11.729Z,100728
2017-12-04T14:54:40.745Z,100734
2017-12-04T14:57:08.990Z,100742
2017-12-04T14:59:37.333Z,100744
2017-12-04T15:02:05.582Z,100752
2017-12-04T15:04:33.838Z,100748
2017-12-04T15:07:02.918Z,100754
2017-12-04T15:09:32.266Z,100762
2017-12-04T15:12:00.538Z,100782
2017-12-04T15:14:28.896Z,100773
2017-12-04T15:16:57.163Z,100776
2017-12-04T15:19:25.407Z,100777
2017-12-04T15:21:53.720Z,100794
2017-12-04T15:24:21.971Z,100796
2017-12-04T15:26:50.206Z,100798
2017-12-04T15:29:18.509Z,100798
2017-12-04T15:31:46.820Z,100811
2017-12-04T15:34:15.855Z,100811
2017-12-04T15:36:44.151Z,100813
2017-12-04T15:39:12.414Z,100828
2017-12-04T15:41:40.675Z,100833
2017-12-04T15:44:09.865Z,100844
2017-12-04T15:46:38.345Z,100836
2017-12-04T15:49:06.591Z,100837
2017-12-04T15:51:34.934Z,100843
2017-12-04T15:54:03.182Z,100836
2017-12-04T15:56:31.483Z,100844
2017-12-04T15:58:59.801Z,100848
2017-12-04T16:01:28.070Z,100845
2017-12-04T16:03:57.079Z,100845
2017-12-04T16:06:25.371Z,100855
2017-12-04T16:08:53.628Z,100865
2017-12-04T16:11:21.861Z,100860
2017-12-04T16:13:51.045Z,100872
2017-12-04T16:16:19.308Z,100868
2017-12-04T16:18:47.541Z,100869
2017-12-04T16:21:16.601Z,100870
2017-12-04T16:23:44.839Z,100885
2017-12-04T16:26:13.101Z,100882
2017-12-04T16:28:41.537Z,100889
2017-12-04T16:31:10.129Z,100899
2017-12-04T16:33:38.354Z,100895
2017-12-04T16:36:06.673Z,100899
2017-12-04T16:38:34.953Z,100899
2017-12-04T16:44:00.464Z,100917
2017-12-04T17:28:19.584Z,100972
2017-12-04T17:30:47.841Z,100975
2017-12-04T17:33:40.125Z,100979
2017-12-04T17:36:08.398Z,100974
2017-12-04T17:38:37.443Z,100976
2017-12-04T17:41:06.258Z,100985
2017-12-04T17:43:34.538Z,100985
2017-12-04T17:46:02.807Z,100987
2017-12-04T17:48:31.126Z,100991
2017-12-04T17:51:00.140Z,101007
2017-12-04T17:53:28.434Z,101005
2017-12-04T17:55:56.865Z,101013
2017-12-04T17:58:25.159Z,101012
2017-12-04T18:00:53.430Z,101011
2017-12-04T18:03:22.680Z,101019
2017-12-04T18:05:51.291Z,101019
2017-12-04T18:08:19.547Z,101017
2017-12-04T18:10:48.002Z,101023
2017-12-04T18:13:16.425Z,101024
2017-12-04T18:15:44.664Z,101027
2017-12-04T18:18:13.324Z,101028
2017-12-04T18:20:41.622Z,101027
2017-12-04T18:23:09.875Z,101030
2017-12-04T18:25:38.213Z,101032
2017-12-04T18:28:06.462Z,101029
2017-12-04T18:30:35.069Z,101040
2017-12-04T18:33:03.385Z,101038
2017-12-04T18:35:32.801Z,101036
2017-12-04T18:38:01.076Z,101033
2017-12-04T18:40:30.155Z,101034
2017-12-04T18:42:58.459Z,101034
2017-12-04T18:45:26.791Z,101047
2017-12-04T18:47:55.152Z,101044
2017-12-04T18:50:23.415Z,101052
2017-12-04T18:52:51.673Z,101053
2017-12-04T18:55:20.084Z,101045
2017-12-04T18:57:49.128Z,101053
2017-12-04T19:00:17.389Z,101054
2017-12-04T19:02:45.830Z,101058
2017-12-04T19:05:14.084Z,101059
2017-12-04T19:07:42.342Z,101067
2017-12-04T19:10:10.715Z,101072
2017-12-04T19:12:38.960Z,101064
2017-12-04T19:15:07.276Z,101074
2017-12-04T19:17:35.602Z,101070
2017-12-04T19:20:04.754Z,101084
2017-12-04T19:22:33.023Z,101082
2017-12-04T19:25:02.099Z,101083
2017-12-04T19:27:30.365Z,101084
2017-12-04T19:29:58.645Z,101096
2017-12-04T19:32:27.042Z,101096
2017-12-04T19:34:55.331Z,101108
2017-12-04T19:37:23.586Z,101101
2017-12-04T19:39:52.013Z,101105
2017-12-04T19:42:20.288Z,101101
2017-12-04T19:44:48.653Z,101106
2017-12-04T19:47:17.154Z,101115
2017-12-04T19:49:45.389Z,101112
2017-12-04T19:52:13.701Z,101116
2017-12-04T19:54:42.959Z,101111
2017-12-04T19:57:13.645Z,101119
2017-12-04T19:59:42.886Z,101126
2017-12-04T20:02:11.905Z,101134
2017-12-04T20:04:40.363Z,101133
2017-12-04T20:07:08.672Z,101143
2017-12-04T20:09:36.976Z,101141
2017-12-04T20:12:06.164Z,101145
2017-12-04T20:14:35.174Z,101152
2017-12-04T20:17:04.230Z,101156
2017-12-04T20:19:32.635Z,101154
2017-12-04T20:22:00.905Z,101153
2017-12-04T20:24:29.158Z,101161
2017-12-04T20:26:57.466Z,101155
2017-12-04T20:29:26.483Z,101166
2017-12-04T20:31:54.739Z,101169
2017-12-04T20:34:23.891Z,101164
2017-12-04T20:36:52.165Z,101164
2017-12-04T20:39:20.442Z,101172
2017-12-04T20:41:48.973Z,101176
2017-12-04T20:44:17.222Z,101179
2017-12-04T20:46:45.523Z,101181
2017-12-04T20:49:13.910Z,101189
2017-12-04T20:51:42.177Z,101184
2017-12-04T20:54:10.503Z,101192
2017-12-04T20:56:38.822Z,101191
2017-12-04T20:59:07.880Z,101190
2017-12-04T21:01:36.380Z,101194
2017-12-04T21:04:04.621Z,101193
2017-12-04T21:06:32.963Z,101197
2017-12-04T21:09:19.134Z,101192
2017-12-04T21:11:51.238Z,101199
2017-12-04T21:14:37.429Z,101200
2017-12-04T21:17:23.535Z,101209
2017-12-04T21:19:51.933Z,101205
2017-12-04T21:22:20.207Z,101202
2017-12-04T21:24:48.463Z,101197
2017-12-04T21:27:16.897Z,101211
2017-12-04T21:29:45.142Z,101206
2017-12-04T21:32:13.528Z,101217
2017-12-04T21:34:41.822Z,101217
2017-12-04T21:37:10.103Z,101225
2017-12-04T21:39:38.371Z,101229
2017-12-04T21:42:06.886Z,101226
2017-12-04T21:44:35.912Z,101227
2017-12-04T21:47:04.223Z,101242
2017-12-04T21:49:32.697Z,101239
2017-12-04T21:52:00.958Z,101238
2017-12-04T21:54:29.223Z,101236
2017-12-04T21:56:58.368Z,101243
2017-12-04T21:59:27.444Z,101244
2017-12-04T22:01:55.683Z,101246
2017-12-04T22:04:24.140Z,101250
2017-12-04T22:06:52.375Z,101251
2017-12-04T22:09:20.784Z,101257
2017-12-04T22:11:49.231Z,101259
2017-12-04T22:14:18.300Z,101261
2017-12-04T22:16:46.664Z,101267
2017-12-04T22:19:15.066Z,101268
2017-12-04T22:21:43.452Z,101264
2017-12-04T22:24:11.824Z,101277
2017-12-04T22:26:40.197Z,101272
2017-12-04T22:29:08.456Z,101273
2017-12-04T22:31:36.687Z,101277
2017-12-04T22:34:05.770Z,101288
2017-12-04T22:36:34.076Z,101278
2017-12-04T22:39:02.361Z,101291
2017-12-04T22:41:30.626Z,101281
2017-12-04T22:43:59.013Z,101282
2017-12-04T22:46:27.346Z,101301
2017-12-04T22:48:55.626Z,101306
2017-12-04T22:51:23.953Z,101295
2017-12-04T22:53:52.230Z,101299
2017-12-04T22:56:20.478Z,101306
2017-12-04T22:58:49.463Z,101306
2017-12-04T23:01:17.750Z,101304
2017-12-04T23:03:46.102Z,101305
2017-12-04T23:06:14.339Z,101298
2017-12-04T23:08:42.622Z,101305
2017-12-04T23:11:10.919Z,101306
2017-12-04T23:13:39.174Z,101306
2017-12-04T23:16:07.400Z,101307
2017-12-04T23:18:36.575Z,101309
2017-12-04T23:21:04.849Z,101307
2017-12-04T23:23:33.118Z,101313
2017-12-04T23:26:01.423Z,101311
2017-12-04T23:28:30.421Z,101309
2017-12-04T23:30:58.676Z,101320
2017-12-04T23:33:27.728Z,101325
2017-12-04T23:35:56.194Z,101327
2017-12-04T23:38:24.507Z,101323
2017-12-04T23:40:52.750Z,101331
2017-12-04T23:43:21.810Z,101317
2017-12-04T23:45:50.118Z,101327
2017-12-04T23:48:18.368Z,101325
2017-12-04T23:50:46.675Z,101331
2017-12-04T23:53:14.918Z,101328
2017-12-04T23:55:43.912Z,101328
2017-12-04T23:58:12.989Z,101327
